Time,TemperatureF,DewpointF,PressureIn,WindDirection,WindDirectionDegrees,WindSpeedMPH,WindSpeedGustMPH,Humidity,HourlyPrecipIn,Conditions,Clouds,dailyrainin,SoftwareType,DateUTC
2013-06-08 00:00:00,56.0,55.2,29.73,ESE,121,3.5,3.5,97,0.40, +RA,,2.58,WeatherDisplay:10.37,2013-06-08 04:00:00,
2013-06-08 00:01:00,56.0,55.2,29.73,ESE,121,3.5,3.5,97,0.40, +RA,,2.58,WeatherDisplay:10.37,2013-06-08 04:01:00,
2013-06-08 00:02:00,55.9,55.1,29.73,ESE,121,0.0,0.0,97,0.40, +RA,,0.00,WeatherDisplay:10.37,2013-06-08 04:02:00,
2013-06-08 00:03:00,55.9,55.1,29.73,South,179,1.1,1.1,97,0.39,-RA,,0.00,WeatherDisplay:10.37,2013-06-08 04:03:00,
2013-06-08 00:05:00,55.9,55.1,29.73,South,179,0.0,0.0,97,0.38,-RA,,0.00,WeatherDisplay:10.37,2013-06-08 04:05:00,
2013-06-08 00:08:00,55.8,55.0,29.73,ENE,78,1.2,1.9,97,0.38,-RA,,0.01,WeatherDisplay:10.37,2013-06-08 04:08:00,
2013-06-08 00:13:00,55.7,54.9,29.73,SE,130,4.6,4.6,97,0.33,-RA,,0.02,WeatherDisplay:10.37,2013-06-08 04:13:00,
2013-06-08 00:18:00,55.7,54.9,29.73,ENE,69,1.3,1.3,97,0.33,-RA,,0.04,WeatherDisplay:10.37,2013-06-08 04:18:00,
2013-06-08 00:23:00,55.7,54.9,29.72,East,83,2.3,2.3,97,0.31,-RA,,0.04,WeatherDisplay:10.37,2013-06-08 04:23:00,
2013-06-08 00:28:00,55.8,55.0,29.72,East,79,2.3,2.3,97,0.28,-RA,,0.04,WeatherDisplay:10.37,2013-06-08 04:28:00,
2013-06-08 00:33:00,55.7,54.9,29.72,East,99,3.5,3.5,97,0.27,-RA,,0.05,WeatherDisplay:10.37,2013-06-08 04:33:00,
2013-06-08 00:38:00,55.7,54.9,29.72,ENE,76,0.0,0.0,97,0.24,-RA,,0.05,WeatherDisplay:10.37,2013-06-08 04:38:00,
2013-06-08 00:43:00,55.5,54.7,29.71,NE,35,3.5,3.5,97,0.20,-RA,,0.06,WeatherDisplay:10.37,2013-06-08 04:43:00,
2013-06-08 00:48:00,55.6,54.8,29.71,SSE,167,5.8,5.8,97,0.18,-RA,,0.07,WeatherDisplay:10.37,2013-06-08 04:48:00,
2013-06-08 00:53:00,55.4,54.6,29.71,SSE,158,2.3,2.3,97,0.12,-RA,,0.07,WeatherDisplay:10.37,2013-06-08 04:53:00,
2013-06-08 00:58:00,55.3,54.5,29.71,ESE,119,3.5,3.5,97,0.09,-RA,,0.08,WeatherDisplay:10.37,2013-06-08 04:58:00,
2013-06-08 01:03:00,55.4,54.6,29.70,ESE,103,6.9,6.9,97,0.11,-RA,,0.12,WeatherDisplay:10.37,2013-06-08 05:03:00,
2013-06-08 01:08:00,55.3,54.5,29.70,NNE,27,5.8,5.8,97,0.13,-RA,,0.13,WeatherDisplay:10.37,2013-06-08 05:08:00,
2013-06-08 01:13:00,55.3,54.5,29.70,SSW,196,3.5,3.5,97,0.12,-RA,,0.14,WeatherDisplay:10.37,2013-06-08 05:13:00,
2013-06-08 01:18:00,55.2,54.4,29.70,ESE,114,4.6,4.6,97,0.11,-RA,,0.14,WeatherDisplay:10.37,2013-06-08 05:18:00,
2013-06-08 01:23:00,55.2,54.4,29.69,ESE,102,8.1,8.1,97,0.10,-RA,,0.14,WeatherDisplay:10.37,2013-06-08 05:23:00,
2013-06-08 01:28:00,55.1,54.3,29.69,East,95,5.8,0.0,97,0.10,-RA,,0.15,WeatherDisplay:10.37,2013-06-08 05:28:00,
2013-06-08 01:33:00,55.2,54.4,29.69,North,11,4.6,4.6,97,0.10,-RA,,0.15,WeatherDisplay:10.37,2013-06-08 05:33:00,
2013-06-08 01:38:00,55.1,54.3,29.69,NNE,17,1.2,1.2,97,0.10,-RA,,0.15,WeatherDisplay:10.37,2013-06-08 05:38:00,
2013-06-08 01:43:00,55.1,54.3,29.69,SE,143,1.2,0.0,97,0.10,-RA,,0.16,WeatherDisplay:10.37,2013-06-08 05:43:00,
2013-06-08 01:48:00,55.0,54.2,29.68,NE,54,0.0,0.3,97,0.12,RA,,0.20,WeatherDisplay:10.37,2013-06-08 05:48:00,
2013-06-08 01:53:00,55.0,54.2,29.68,East,97,5.8,5.8,97,0.14,RA,,0.21,WeatherDisplay:10.37,2013-06-08 05:53:00,
2013-06-08 01:58:00,54.8,54.0,29.68,ESE,121,4.6,4.6,97,0.13,RA,,0.22,WeatherDisplay:10.37,2013-06-08 05:58:00,
2013-06-08 02:03:00,54.8,54.0,29.67,ENE,69,3.5,3.5,97,0.13,-RA,,0.25,WeatherDisplay:10.37,2013-06-08 06:03:00,
2013-06-08 02:08:00,54.8,54.0,29.67,WNW,284,8.1,8.1,97,0.14,-RA,,0.27,WeatherDisplay:10.37,2013-06-08 06:08:00,
2013-06-08 02:13:00,54.6,53.8,29.67,NNE,14,9.2,9.2,97,0.14,-RA,,0.28,WeatherDisplay:10.37,2013-06-08 06:13:00,
2013-06-08 02:18:00,54.5,53.7,29.67,East,85,8.1,8.1,97,0.15,-RA,,0.29,WeatherDisplay:10.37,2013-06-08 06:18:00,
2013-06-08 02:23:00,54.4,53.6,29.67,ESE,123,4.6,4.6,97,0.16,-RA,,0.30,WeatherDisplay:10.37,2013-06-08 06:23:00,
2013-06-08 02:28:00,54.4,53.6,29.67,ESE,110,5.8,5.8,97,0.17,-RA,,0.32,WeatherDisplay:10.37,2013-06-08 06:28:00,
2013-06-08 02:33:00,54.6,53.8,29.67,ESE,103,1.2,1.2,97,0.18,-RA,,0.33,WeatherDisplay:10.37,2013-06-08 06:33:00,
2013-06-08 02:38:00,54.5,53.7,29.67,East,83,8.1,8.1,97,0.18, +RA,,0.33,WeatherDisplay:10.37,2013-06-08 06:38:00,
2013-06-08 02:44:00,54.4,53.6,29.67,NNW,339,6.9,6.9,97,0.20, +RA,,0.36,WeatherDisplay:10.37,2013-06-08 06:44:00,
2013-06-08 02:49:00,54.8,54.0,29.67,ENE,58,0.0,0.0,97,0.18, +RA,,0.38,WeatherDisplay:10.37,2013-06-08 06:49:00,
2013-06-08 02:54:00,54.8,54.0,29.66,SSE,151,9.2,9.2,97,0.18, +RA,,0.39,WeatherDisplay:10.37,2013-06-08 06:54:00,
2013-06-08 02:59:00,54.8,54.0,29.67,NNE,24,4.6,4.6,97,0.18, +RA,,0.40,WeatherDisplay:10.37,2013-06-08 06:59:00,
2013-06-08 03:04:00,54.7,53.9,29.67,North,349,5.8,5.8,97,0.18, +RA,,0.44,WeatherDisplay:10.37,2013-06-08 07:04:00,
2013-06-08 03:09:00,54.5,53.7,29.67,NW,318,11.5,11.5,97,0.21, +RA,,0.49,WeatherDisplay:10.37,2013-06-08 07:09:00,
2013-06-08 03:14:00,54.7,53.9,29.67,NE,54,2.3,2.3,97,0.22, +RA,,0.51,WeatherDisplay:10.37,2013-06-08 07:14:00,
2013-06-08 03:19:00,54.7,53.9,29.67,NNW,337,4.6,4.6,97,0.25, +RA,,0.54,WeatherDisplay:10.37,2013-06-08 07:19:00,
2013-06-08 03:24:00,54.7,53.9,29.67,East,85,3.5,3.5,97,0.29, +RA,,0.59,WeatherDisplay:10.37,2013-06-08 07:24:00,
2013-06-08 03:29:00,54.8,54.0,29.67,North,7,0.0,0.0,97,0.29, +RA,,0.62,WeatherDisplay:10.37,2013-06-08 07:29:00,
2013-06-08 03:34:00,54.7,53.9,29.67,NNW,336,3.5,3.5,97,0.33, +RA,,0.66,WeatherDisplay:10.37,2013-06-08 07:34:00,
2013-06-08 03:39:00,54.8,54.0,29.67,North,350,0.0,0.0,97,0.37, +RA,,0.70,WeatherDisplay:10.37,2013-06-08 07:39:00,
2013-06-08 03:44:00,54.6,53.8,29.66,NW,320,0.0,0.0,97,0.35, +RA,,0.71,WeatherDisplay:10.37,2013-06-08 07:44:00,
2013-06-08 03:49:00,54.7,53.9,29.66,NE,35,5.8,5.8,97,0.34, +RA,,0.71,WeatherDisplay:10.37,2013-06-08 07:49:00,
2013-06-08 03:54:00,54.5,53.7,29.66,NE,34,9.2,9.2,97,0.32, +RA,,0.71,WeatherDisplay:10.37,2013-06-08 07:54:00,
2013-06-08 03:59:00,54.4,53.6,29.66,NNE,17,8.1,8.1,97,0.30, +RA,,0.71,WeatherDisplay:10.37,2013-06-08 07:59:00,
2013-06-08 04:04:00,54.3,53.5,29.66,North,4,0.0,3.1,97,0.27,OVC,,0.71,WeatherDisplay:10.37,2013-06-08 08:04:00,
2013-06-08 04:09:00,54.4,53.6,29.66,NNE,24,4.6,4.6,97,0.22,OVC,,0.71,WeatherDisplay:10.37,2013-06-08 08:09:00,
2013-06-08 04:14:00,54.3,53.5,29.66,NE,48,4.6,4.6,97,0.20,OVC,,0.71,WeatherDisplay:10.37,2013-06-08 08:14:00,
2013-06-08 04:19:00,54.3,53.5,29.66,NNW,333,1.2,0.0,97,0.18,OVC,,0.71,WeatherDisplay:10.37,2013-06-08 08:19:00,
2013-06-08 04:24:00,54.3,53.5,29.66,North,353,0.0,2.1,97,0.13,-RA,,0.71,WeatherDisplay:10.37,2013-06-08 08:24:00,
2013-06-08 04:29:00,54.3,53.5,29.67,NW,323,4.6,4.6,97,0.09,-RA,,0.72,WeatherDisplay:10.37,2013-06-08 08:29:00,
2013-06-08 04:34:00,54.4,53.6,29.67,NNW,342,4.6,4.6,97,0.06,-RA,,0.72,WeatherDisplay:10.37,2013-06-08 08:34:00,
2013-06-08 04:39:00,54.4,53.6,29.67,West,277,6.9,6.9,97,0.03,-RA,,0.72,WeatherDisplay:10.37,2013-06-08 08:39:00,
2013-06-08 04:44:00,54.4,53.6,29.67,WNW,287,0.0,0.0,97,0.01,-RA,,0.72,WeatherDisplay:10.37,2013-06-08 08:44:00,
2013-06-08 04:49:00,54.3,53.5,29.67,ESE,104,0.0,0.0,97,0.01,-RA,,0.72,WeatherDisplay:10.37,2013-06-08 08:49:00,
2013-06-08 04:54:00,54.3,53.5,29.67,NNE,25,6.9,6.9,97,0.01,-RA,,0.72,WeatherDisplay:10.37,2013-06-08 08:54:00,
2013-06-08 04:59:00,54.5,53.7,29.67,NNW,344,6.9,6.9,97,0.01,-RA,,0.72,WeatherDisplay:10.37,2013-06-08 08:59:00,
2013-06-08 05:04:00,54.4,53.6,29.67,WSW,253,3.5,3.5,97,0.01,-RA,,0.72,WeatherDisplay:10.37,2013-06-08 09:04:00,
2013-06-08 05:09:00,54.3,53.5,29.67,NNW,333,11.5,11.5,97,0.01,-RA,,0.72,WeatherDisplay:10.37,2013-06-08 09:09:00,
2013-06-08 05:14:00,54.3,53.5,29.67,ENE,58,3.5,3.5,97,0.01,-RA,,0.72,WeatherDisplay:10.37,2013-06-08 09:14:00,
2013-06-08 05:19:00,54.4,53.6,29.67,WSW,241,3.5,3.5,97,0.01,-RA,,0.72,WeatherDisplay:10.37,2013-06-08 09:19:00,
2013-06-08 05:24:00,54.3,53.5,29.67,East,88,3.5,3.5,97,0.01,-RA,,0.72,WeatherDisplay:10.37,2013-06-08 09:24:00,
2013-06-08 05:29:00,54.3,53.5,29.68,WSW,240,3.5,3.5,97,0.01,-RA,,0.72,WeatherDisplay:10.37,2013-06-08 09:29:00,
2013-06-08 05:34:00,54.5,53.7,29.69,NNE,14,4.6,4.6,97,0.00,OVC,,0.72,WeatherDisplay:10.37,2013-06-08 09:34:00,
2013-06-08 05:39:00,54.5,53.7,29.69,ENE,68,1.2,1.2,97,0.00,OVC,,0.72,WeatherDisplay:10.37,2013-06-08 09:39:00,
2013-06-08 05:44:00,54.7,53.9,29.69,North,356,0.0,0.1,97,0.00,OVC,,0.72,WeatherDisplay:10.37,2013-06-08 09:44:00,
2013-06-08 05:49:00,54.5,53.7,29.70,NW,323,4.6,4.6,97,0.00,OVC,,0.72,WeatherDisplay:10.37,2013-06-08 09:49:00,
2013-06-08 05:54:00,54.7,53.9,29.70,WNW,282,0.0,0.0,97,0.00,OVC,,0.72,WeatherDisplay:10.37,2013-06-08 09:54:00,
2013-06-08 05:59:00,54.6,53.8,29.71,WNW,282,0.0,0.0,97,0.00,OVC,,0.72,WeatherDisplay:10.37,2013-06-08 09:59:00,
2013-06-08 06:04:00,54.7,53.9,29.71,SSW,208,0.0,0.0,97,0.00,OVC,,0.72,WeatherDisplay:10.37,2013-06-08 10:04:00,
2013-06-08 06:09:00,54.7,53.9,29.72,NW,305,0.0,0.0,97,0.00,OVC,,0.72,WeatherDisplay:10.37,2013-06-08 10:09:00,
2013-06-08 06:14:00,54.9,54.1,29.72,NNW,347,3.5,3.5,97,0.00,OVC,,0.72,WeatherDisplay:10.37,2013-06-08 10:14:00,
2013-06-08 06:19:00,55.0,54.2,29.73,NNW,347,6.0,6.0,97,0.00,OVC,,0.72,WeatherDisplay:10.37,2013-06-08 10:19:00,
2013-06-08 06:24:00,55.1,54.3,29.73,NNW,329,3.2,3.2,97,0.00,OVC,,0.72,WeatherDisplay:10.37,2013-06-08 10:24:00,
2013-06-08 06:29:00,55.1,54.3,29.73,WNW,284,4.6,0.0,97,0.00,OVC,,0.72,WeatherDisplay:10.37,2013-06-08 10:29:00,
2013-06-08 06:34:00,55.2,54.4,29.74,NNE,13,8.1,8.1,97,0.00,OVC,,0.72,WeatherDisplay:10.37,2013-06-08 10:34:00,
2013-06-08 06:39:00,55.4,54.6,29.74,NE,38,0.0,0.8,97,0.00,OVC,,0.72,WeatherDisplay:10.37,2013-06-08 10:39:00,
2013-06-08 06:44:00,55.5,54.7,29.74,NNE,25,0.0,0.0,97,0.00,OVC,,0.72,WeatherDisplay:10.37,2013-06-08 10:44:00,
2013-06-08 06:49:00,55.4,54.6,29.75,East,82,4.6,4.6,97,0.00,OVC,,0.72,WeatherDisplay:10.37,2013-06-08 10:49:00,
2013-06-08 06:54:00,55.5,54.7,29.75,NW,308,2.3,2.3,97,0.00,OVC,,0.72,WeatherDisplay:10.37,2013-06-08 10:54:00,
2013-06-08 06:59:00,55.8,55.0,29.75,North,11,5.8,5.8,97,0.00,OVC,,0.72,WeatherDisplay:10.37,2013-06-08 10:59:00,
2013-06-08 07:04:00,55.8,55.0,29.75,North,1,8.1,8.1,97,0.00,OVC,,0.72,WeatherDisplay:10.37,2013-06-08 11:04:00,
2013-06-08 07:09:00,56.1,55.3,29.76,NNE,32,1.2,0.0,97,0.00,OVC,,0.72,WeatherDisplay:10.37,2013-06-08 11:09:00,
2013-06-08 07:14:00,56.1,55.3,29.77,NW,309,3.5,3.5,97,0.00,OVC,,0.72,WeatherDisplay:10.37,2013-06-08 11:14:00,
2013-06-08 07:19:00,56.2,55.4,29.77,SW,227,0.0,0.0,97,0.00,BKN,,0.72,WeatherDisplay:10.37,2013-06-08 11:19:00,
2013-06-08 07:24:00,56.4,55.6,29.77,North,360,3.5,3.6,97,0.00,BKN,,0.72,WeatherDisplay:10.37,2013-06-08 11:24:00,
2013-06-08 07:29:00,56.6,55.8,29.77,NW,312,5.8,5.8,97,0.00,BKN,,0.72,WeatherDisplay:10.37,2013-06-08 11:29:00,
2013-06-08 07:34:00,56.7,55.6,29.77,NE,35,6.9,6.9,96,0.00,BKN,,0.72,WeatherDisplay:10.37,2013-06-08 11:34:00,
2013-06-08 07:39:00,56.8,55.7,29.77,West,260,6.9,6.9,96,0.00,BKN,,0.72,WeatherDisplay:10.37,2013-06-08 11:39:00,
2013-06-08 07:44:00,56.9,55.8,29.77,NNW,343,4.6,4.6,96,0.00,BKN,,0.72,WeatherDisplay:10.37,2013-06-08 11:44:00,
2013-06-08 07:49:00,57.0,55.9,29.77,NNE,25,6.9,6.9,96,0.00,BKN,,0.72,WeatherDisplay:10.37,2013-06-08 11:49:00,
2013-06-08 07:54:00,57.3,56.2,29.77,NE,35,1.2,0.0,96,0.00,BKN,,0.72,WeatherDisplay:10.37,2013-06-08 11:54:00,
2013-06-08 07:59:00,57.2,56.1,29.77,NW,312,6.9,6.9,96,0.00,BKN,,0.72,WeatherDisplay:10.37,2013-06-08 11:59:00,
2013-06-08 08:04:00,57.1,56.0,29.78,North,3,5.8,5.8,96,0.00,OVC,,0.72,WeatherDisplay:10.37,2013-06-08 12:04:00,
2013-06-08 08:09:00,57.2,56.1,29.78,ENE,69,2.3,2.3,96,0.00,OVC,,0.72,WeatherDisplay:10.37,2013-06-08 12:09:00,
2013-06-08 08:14:00,57.5,56.4,29.78,ESE,106,9.2,9.2,96,0.00,OVC,,0.72,WeatherDisplay:10.37,2013-06-08 12:14:00,
2013-06-08 08:19:00,57.5,56.4,29.79,NNE,17,8.1,8.1,96,0.00,OVC,,0.72,WeatherDisplay:10.37,2013-06-08 12:19:00,
2013-06-08 08:24:00,57.4,56.3,29.79,NE,51,5.8,5.8,96,0.00,OVC,,0.72,WeatherDisplay:10.37,2013-06-08 12:24:00,
2013-06-08 08:29:00,57.7,56.6,29.79,NNE,16,5.8,5.8,96,0.00,OVC,,0.72,WeatherDisplay:10.37,2013-06-08 12:29:00,
2013-06-08 08:34:00,58.4,57.3,29.80,NNE,18,5.8,5.8,96,0.00,OVC,,0.72,WeatherDisplay:10.37,2013-06-08 12:34:00,
2013-06-08 08:39:00,58.0,56.9,29.81,NNE,17,6.9,6.9,96,0.00,OVC,,0.72,WeatherDisplay:10.37,2013-06-08 12:39:00,
2013-06-08 08:44:00,58.1,57.0,29.81,NNE,20,4.6,4.6,96,0.00,OVC,,0.72,WeatherDisplay:10.37,2013-06-08 12:44:00,
2013-06-08 08:49:00,57.8,56.7,29.81,NW,306,10.4,10.4,96,0.00,OVC,,0.72,WeatherDisplay:10.37,2013-06-08 12:49:00,
2013-06-08 08:54:00,58.4,57.3,29.81,NNW,344,8.1,8.1,96,0.00,OVC,,0.72,WeatherDisplay:10.37,2013-06-08 12:54:00,
2013-06-08 08:59:00,58.6,57.5,29.82,NW,316,6.9,6.9,96,0.00,OVC,,0.72,WeatherDisplay:10.37,2013-06-08 12:59:00,
2013-06-08 09:04:00,58.9,57.8,29.82,West,281,5.8,5.8,96,0.00,OVC,,0.72,WeatherDisplay:10.37,2013-06-08 13:04:00,
2013-06-08 09:09:00,59.4,58.3,29.82,North,1,3.5,3.5,96,0.00,OVC,,0.72,WeatherDisplay:10.37,2013-06-08 13:09:00,
2013-06-08 09:14:00,59.5,58.1,29.82,SW,233,5.8,5.8,95,0.00,OVC,,0.72,WeatherDisplay:10.37,2013-06-08 13:14:00,
2013-06-08 09:19:00,59.7,58.3,29.82,WNW,298,5.8,5.8,95,0.00,OVC,,0.72,WeatherDisplay:10.37,2013-06-08 13:19:00,
2013-06-08 09:24:00,59.7,58.0,29.83,West,267,8.1,8.1,94,0.00,SCT,,0.72,WeatherDisplay:10.37,2013-06-08 13:24:00,
2013-06-08 09:29:00,60.1,58.7,29.82,West,278,9.2,9.2,95,0.00,SCT,,0.72,WeatherDisplay:10.37,2013-06-08 13:29:00,
2013-06-08 09:34:00,60.9,58.9,29.82,SW,216,6.9,6.9,93,0.00,SCT,,0.72,WeatherDisplay:10.37,2013-06-08 13:34:00,
2013-06-08 09:39:00,61.5,59.5,29.82,NNE,30,9.2,9.2,93,0.00,SCT,,0.72,WeatherDisplay:10.37,2013-06-08 13:39:00,
2013-06-08 09:44:00,62.1,59.5,29.82,North,0,5.8,5.8,91,0.00,SCT,,0.72,WeatherDisplay:10.37,2013-06-08 13:44:00,
2013-06-08 09:49:00,63.0,60.4,29.83,NNE,21,5.8,5.8,91,0.00,SCT,,0.72,WeatherDisplay:10.37,2013-06-08 13:49:00,
2013-06-08 09:54:00,63.7,60.4,29.83,NNW,340,6.9,6.9,89,0.00,SCT,,0.72,WeatherDisplay:10.37,2013-06-08 13:54:00,
2013-06-08 09:59:00,64.4,61.4,29.83,NNW,332,5.8,5.8,90,0.00,SCT,,0.72,WeatherDisplay:10.37,2013-06-08 13:59:00,
2013-06-08 10:04:00,65.0,61.7,29.83,NNE,16,9.2,9.2,89,0.00,SCT,,0.72,WeatherDisplay:10.37,2013-06-08 14:04:00,
2013-06-08 10:09:00,65.6,61.3,29.83,NNW,337,9.2,9.2,86,0.00,SCT,,0.72,WeatherDisplay:10.37,2013-06-08 14:09:00,
2013-06-08 10:14:00,65.8,61.2,29.83,NE,40,5.8,5.8,85,0.00,SCT,,0.72,WeatherDisplay:10.37,2013-06-08 14:14:00,
2013-06-08 10:19:00,65.5,60.2,29.83,West,277,4.6,4.6,83,0.00,BKN,,0.72,WeatherDisplay:10.37,2013-06-08 14:19:00,
2013-06-08 10:24:00,65.6,60.7,29.83,West,267,8.3,8.3,84,0.00,BKN,,0.72,WeatherDisplay:10.37,2013-06-08 14:24:00,
2013-06-08 10:29:00,65.5,60.2,29.84,NNE,17,6.9,6.9,83,0.00,BKN,,0.72,WeatherDisplay:10.37,2013-06-08 14:29:00,
2013-06-08 10:34:00,65.4,59.8,29.84,NNE,13,4.6,4.6,82,0.00,BKN,,0.72,WeatherDisplay:10.37,2013-06-08 14:34:00,
2013-06-08 10:39:00,65.8,60.2,29.84,NNE,23,4.6,4.6,82,0.00,BKN,,0.72,WeatherDisplay:10.37,2013-06-08 14:39:00,
2013-06-08 10:44:00,66.1,61.2,29.85,NW,316,2.3,2.3,84,0.00,BKN,,0.72,WeatherDisplay:10.37,2013-06-08 14:44:00,
2013-06-08 10:49:00,66.1,60.1,29.85,NW,304,5.8,5.8,81,0.00,BKN,,0.72,WeatherDisplay:10.37,2013-06-08 14:49:00,
2013-06-08 10:54:00,66.2,60.9,29.85,WNW,295,7.0,7.0,83,0.00,BKN,,0.72,WeatherDisplay:10.37,2013-06-08 14:54:00,
2013-06-08 10:59:00,66.3,60.0,29.86,West,280,9.2,9.2,80,0.00,BKN,,0.72,WeatherDisplay:10.37,2013-06-08 14:59:00,
2013-06-08 11:04:00,66.3,60.0,29.86,WSW,258,7.5,7.5,80,0.00,SCT,,0.72,WeatherDisplay:10.37,2013-06-08 15:04:00,
2013-06-08 11:09:00,66.5,60.9,29.87,West,270,5.8,5.8,82,0.00,SCT,,0.72,WeatherDisplay:10.37,2013-06-08 15:09:00,
2013-06-08 11:14:00,66.8,61.2,29.87,WNW,292,10.4,10.4,82,0.00,SCT,,0.72,WeatherDisplay:10.37,2013-06-08 15:14:00,
2013-06-08 11:19:00,67.6,61.9,29.87,WNW,284,6.9,6.9,82,0.00,SCT,,0.72,WeatherDisplay:10.37,2013-06-08 15:19:00,
2013-06-08 11:24:00,68.2,61.1,29.87,West,264,4.6,4.6,78,0.00,BKN,,0.72,WeatherDisplay:10.37,2013-06-08 15:24:00,
2013-06-08 11:29:00,68.6,61.1,29.87,West,260,9.2,9.2,77,0.00,BKN,,0.72,WeatherDisplay:10.37,2013-06-08 15:29:00,
2013-06-08 11:34:00,69.0,61.9,29.87,North,349,6.9,6.9,78,0.00,BKN,,0.72,WeatherDisplay:10.37,2013-06-08 15:34:00,
2013-06-08 11:39:00,69.3,62.2,29.87,West,275,8.1,8.1,78,0.00,BKN,,0.72,WeatherDisplay:10.37,2013-06-08 15:39:00,
2013-06-08 11:44:00,69.9,61.7,29.87,SW,224,8.1,8.1,75,0.00,BKN,,0.72,WeatherDisplay:10.37,2013-06-08 15:44:00,
2013-06-08 11:49:00,70.4,60.6,29.88,WSW,251,10.4,10.4,71,0.00,BKN,,0.72,WeatherDisplay:10.37,2013-06-08 15:49:00,
2013-06-08 11:54:00,71.0,62.7,29.87,NW,305,4.6,4.6,75,0.00,BKN,,0.72,WeatherDisplay:10.37,2013-06-08 15:54:00,
2013-06-08 11:59:00,71.1,62.0,29.87,WNW,289,5.8,5.8,73,0.00,BKN,,0.72,WeatherDisplay:10.37,2013-06-08 15:59:00,
2013-06-08 12:04:00,71.7,62.2,29.88,North,352,8.1,8.1,72,0.00,BKN,,0.72,WeatherDisplay:10.37,2013-06-08 16:04:00,
2013-06-08 12:09:00,72.0,62.1,29.87,NW,309,8.1,8.1,71,0.00,BKN,,0.72,WeatherDisplay:10.37,2013-06-08 16:09:00,
2013-06-08 12:14:00,71.6,62.1,29.87,North,0,5.8,5.8,72,0.00,BKN,,0.72,WeatherDisplay:10.37,2013-06-08 16:14:00,
2013-06-08 12:19:00,71.4,61.1,29.87,WNW,285,4.6,4.6,70,0.00,BKN,,0.72,WeatherDisplay:10.37,2013-06-08 16:19:00,
2013-06-08 12:24:00,71.2,61.7,29.87,West,265,5.8,5.8,72,0.00,BKN,,0.72,WeatherDisplay:10.37,2013-06-08 16:24:00,
2013-06-08 12:29:00,70.8,61.8,29.88,WNW,289,6.9,6.9,73,0.00,BKN,,0.72,WeatherDisplay:10.37,2013-06-08 16:29:00,
2013-06-08 12:34:00,70.9,61.8,29.88,WNW,294,6.9,6.9,73,0.00,BKN,,0.72,WeatherDisplay:10.37,2013-06-08 16:34:00,
2013-06-08 12:39:00,71.4,62.3,29.88,NNW,340,5.8,5.8,73,0.00,BKN,,0.72,WeatherDisplay:10.37,2013-06-08 16:39:00,
2013-06-08 12:44:00,71.3,62.2,29.88,SW,222,4.6,4.6,73,0.00,BKN,,0.72,WeatherDisplay:10.37,2013-06-08 16:44:00,
2013-06-08 12:49:00,71.3,61.4,29.88,WSW,241,1.2,1.2,71,0.00,BKN,,0.72,WeatherDisplay:10.37,2013-06-08 16:49:00,
2013-06-08 12:54:00,71.6,61.7,29.88,NW,316,5.8,5.8,71,0.00,SCT,,0.72,WeatherDisplay:10.37,2013-06-08 16:54:00,
2013-06-08 12:59:00,72.6,62.7,29.88,West,264,4.4,4.4,71,0.00,SCT,,0.72,WeatherDisplay:10.37,2013-06-08 16:59:00,
2013-06-08 13:04:00,72.5,63.4,29.88,South,181,2.3,2.3,73,0.00,BKN,,0.72,WeatherDisplay:10.37,2013-06-08 17:04:00,
2013-06-08 13:09:00,72.6,63.5,29.88,NNE,27,4.6,4.6,73,0.00,BKN,,0.72,WeatherDisplay:10.37,2013-06-08 17:09:00,
2013-06-08 13:14:00,73.6,65.2,29.88,West,275,5.8,5.8,75,0.00,BKN,,0.72,WeatherDisplay:10.37,2013-06-08 17:14:00,
2013-06-08 13:19:00,73.6,63.7,29.88,WSW,246,3.5,3.5,71,0.00,BKN,,0.72,WeatherDisplay:10.37,2013-06-08 17:19:00,
2013-06-08 13:24:00,73.3,62.1,29.88,WSW,257,9.2,9.2,68,0.00,BKN,,0.72,WeatherDisplay:10.37,2013-06-08 17:24:00,
2013-06-08 13:29:00,73.3,63.0,29.88,WSW,254,8.1,8.1,70,0.00,BKN,,0.72,WeatherDisplay:10.37,2013-06-08 17:29:00,
2013-06-08 13:34:00,73.7,64.5,29.88,NE,38,4.6,4.6,73,0.00,BKN,,0.72,WeatherDisplay:10.37,2013-06-08 17:34:00,
2013-06-08 13:39:00,74.0,63.2,29.88,East,83,8.1,8.1,69,0.00,BKN,,0.72,WeatherDisplay:10.37,2013-06-08 17:39:00,
2013-06-08 13:44:00,74.4,62.8,29.88,SW,219,4.6,5.2,67,0.00,BKN,,0.72,WeatherDisplay:10.37,2013-06-08 17:44:00,
2013-06-08 13:49:00,74.4,63.2,29.87,WSW,254,6.9,6.9,68,0.00,OVC,,0.72,WeatherDisplay:10.37,2013-06-08 17:49:00,
2013-06-08 13:54:00,74.2,62.1,29.88,WSW,250,2.4,2.4,66,0.00,OVC,,0.72,WeatherDisplay:10.37,2013-06-08 17:54:00,
2013-06-08 13:59:00,74.0,63.6,29.88,WSW,243,3.9,3.9,70,0.00,OVC,,0.72,WeatherDisplay:10.37,2013-06-08 17:59:00,
2013-06-08 14:04:00,74.0,62.8,29.87,West,272,10.5,10.5,68,0.00,OVC,,0.72,WeatherDisplay:10.37,2013-06-08 18:04:00,
2013-06-08 14:09:00,74.4,62.3,29.87,WNW,299,6.8,6.8,66,0.00,OVC,,0.72,WeatherDisplay:10.37,2013-06-08 18:09:00,
2013-06-08 14:14:00,75.0,62.9,29.87,NE,41,3.5,3.5,66,0.00,OVC,,0.72,WeatherDisplay:10.37,2013-06-08 18:14:00,
2013-06-08 14:19:00,75.2,63.1,29.87,SW,233,2.3,2.3,66,0.00,OVC,,0.72,WeatherDisplay:10.37,2013-06-08 18:19:00,
2013-06-08 14:24:00,75.1,63.0,29.88,West,274,2.3,2.3,66,0.00,OVC,,0.72,WeatherDisplay:10.37,2013-06-08 18:24:00,
2013-06-08 14:29:00,74.6,62.5,29.88,West,278,0.0,1.0,66,0.00,OVC,,0.72,WeatherDisplay:10.37,2013-06-08 18:29:00,
2013-06-08 14:34:00,74.7,63.0,29.88,WSW,257,5.8,5.8,67,0.00,OVC,,0.72,WeatherDisplay:10.37,2013-06-08 18:34:00,
2013-06-08 14:39:00,74.8,60.9,29.88,WSW,258,3.5,3.5,62,0.00,OVC,,0.72,WeatherDisplay:10.37,2013-06-08 18:39:00,
2013-06-08 14:44:00,74.7,62.6,29.89,WSW,244,4.6,4.6,66,0.00,OVC,,0.72,WeatherDisplay:10.37,2013-06-08 18:44:00,
2013-06-08 14:49:00,74.8,63.6,29.89,West,268,3.5,3.5,68,0.00,OVC,,0.72,WeatherDisplay:10.37,2013-06-08 18:49:00,
2013-06-08 14:54:00,75.0,63.8,29.88,SSE,165,2.3,2.3,68,0.00,OVC,,0.72,WeatherDisplay:10.37,2013-06-08 18:54:00,
2013-06-08 14:59:00,74.9,62.8,29.88,WSW,257,6.9,6.9,66,0.00,OVC,,0.72,WeatherDisplay:10.37,2013-06-08 18:59:00,
2013-06-08 15:04:00,75.3,64.5,29.88,NW,322,3.5,3.5,69,0.00,BKN,,0.72,WeatherDisplay:10.37,2013-06-08 19:04:00,
2013-06-08 15:09:00,75.4,63.3,29.88,West,263,2.3,2.3,66,0.00,BKN,,0.72,WeatherDisplay:10.37,2013-06-08 19:09:00,
2013-06-08 15:14:00,75.8,64.1,29.88,WSW,257,4.0,4.0,67,0.00,BKN,,0.72,WeatherDisplay:10.37,2013-06-08 19:14:00,
2013-06-08 15:19:00,75.8,63.7,29.89,WSW,254,4.6,4.6,66,0.00,BKN,,0.72,WeatherDisplay:10.37,2013-06-08 19:19:00,
2013-06-08 15:24:00,75.6,61.7,29.88,West,270,6.9,6.9,62,0.00,BKN,,0.72,WeatherDisplay:10.37,2013-06-08 19:24:00,
2013-06-08 15:29:00,75.7,63.6,29.88,WNW,284,5.8,5.8,66,0.00,BKN,,0.72,WeatherDisplay:10.37,2013-06-08 19:29:00,
2013-06-08 15:34:00,75.3,63.2,29.88,WNW,289,8.1,8.1,66,0.00,BKN,,0.72,WeatherDisplay:10.37,2013-06-08 19:34:00,
2013-06-08 15:39:00,75.1,62.6,29.88,WNW,296,6.9,6.9,65,0.00,BKN,,0.72,WeatherDisplay:10.37,2013-06-08 19:39:00,
2013-06-08 15:44:00,74.5,62.4,29.89,West,268,5.8,5.8,66,0.00,BKN,,0.72,WeatherDisplay:10.37,2013-06-08 19:44:00,
2013-06-08 15:49:00,74.4,62.8,29.89,West,274,6.9,6.9,67,0.00,BKN,,0.72,WeatherDisplay:10.37,2013-06-08 19:49:00,
2013-06-08 15:54:00,74.3,62.7,29.88,West,270,6.9,6.9,67,0.00,BKN,,0.72,WeatherDisplay:10.37,2013-06-08 19:54:00,
2013-06-08 15:59:00,74.7,63.5,29.89,WSW,258,7.6,7.6,68,0.00,BKN,,0.72,WeatherDisplay:10.37,2013-06-08 19:59:00,
2013-06-08 16:04:00,74.7,63.0,29.89,West,275,8.1,8.1,67,0.00,BKN,,0.72,WeatherDisplay:10.37,2013-06-08 20:04:00,
2013-06-08 16:09:00,74.7,63.0,29.89,WSW,256,6.9,6.9,67,0.00,BKN,,0.72,WeatherDisplay:10.37,2013-06-08 20:09:00,
2013-06-08 16:14:00,74.6,63.0,29.89,West,272,11.4,11.4,67,0.00,BKN,,0.72,WeatherDisplay:10.37,2013-06-08 20:14:00,
2013-06-08 16:19:00,74.2,62.1,29.90,West,267,6.9,6.9,66,0.00,BKN,,0.72,WeatherDisplay:10.37,2013-06-08 20:19:00,
2013-06-08 16:24:00,73.7,62.5,29.89,WSW,250,6.9,6.9,68,0.00,FEW,,0.72,WeatherDisplay:10.37,2013-06-08 20:24:00,
2013-06-08 16:29:00,73.3,62.6,29.89,WSW,254,8.1,8.1,69,0.00,FEW,,0.72,WeatherDisplay:10.37,2013-06-08 20:29:00,
2013-06-08 16:34:00,73.4,62.6,29.90,WSW,254,6.9,6.9,69,0.00,FEW,,0.72,WeatherDisplay:10.37,2013-06-08 20:34:00,
2013-06-08 16:39:00,73.0,62.7,29.91,WSW,251,4.6,4.6,70,0.00,FEW,,0.72,WeatherDisplay:10.37,2013-06-08 20:39:00,
2013-06-08 16:44:00,73.0,62.7,29.90,SW,229,5.8,5.8,70,0.00,FEW,,0.72,WeatherDisplay:10.37,2013-06-08 20:44:00,
2013-06-08 16:49:00,73.0,62.3,29.90,WNW,298,5.8,5.8,69,0.00,FEW,,0.72,WeatherDisplay:10.37,2013-06-08 20:49:00,
2013-06-08 16:54:00,73.4,63.1,29.90,West,264,7.3,7.3,70,0.00,FEW,,0.72,WeatherDisplay:10.37,2013-06-08 20:54:00,
2013-06-08 16:59:00,73.3,62.1,29.91,West,278,5.8,5.8,68,0.00,FEW,,0.72,WeatherDisplay:10.37,2013-06-08 20:59:00,
2013-06-08 17:04:00,73.1,61.5,29.91,West,263,9.2,9.2,67,0.00,FEW,,0.72,WeatherDisplay:10.37,2013-06-08 21:04:00,
2013-06-08 17:09:00,73.1,61.5,29.91,WSW,254,8.1,8.1,67,0.00,FEW,,0.72,WeatherDisplay:10.37,2013-06-08 21:09:00,
2013-06-08 17:14:00,73.3,63.0,29.91,WNW,282,8.1,8.1,70,0.00,FEW,,0.72,WeatherDisplay:10.37,2013-06-08 21:14:00,
2013-06-08 17:19:00,73.1,62.8,29.91,West,267,4.6,4.6,70,0.00,SCT,,0.72,WeatherDisplay:10.37,2013-06-08 21:19:00,
2013-06-08 17:24:00,73.2,62.9,29.91,SSW,206,6.9,6.9,70,0.00,SCT,,0.72,WeatherDisplay:10.37,2013-06-08 21:24:00,
2013-06-08 17:29:00,73.1,61.9,29.91,West,277,4.6,4.6,68,0.00,SCT,,0.72,WeatherDisplay:10.37,2013-06-08 21:29:00,
2013-06-08 17:34:00,73.2,62.5,29.91,West,265,9.2,9.2,69,0.00,SCT,,0.72,WeatherDisplay:10.37,2013-06-08 21:34:00,
2013-06-08 17:39:00,73.0,61.4,29.91,NW,304,6.9,6.9,67,0.00,SCT,,0.72,WeatherDisplay:10.37,2013-06-08 21:39:00,
2013-06-08 17:44:00,73.0,62.3,29.91,West,268,10.4,10.4,69,0.00,SCT,,0.72,WeatherDisplay:10.37,2013-06-08 21:44:00,
2013-06-08 17:49:00,72.7,61.1,29.92,WNW,289,8.1,8.1,67,0.00,SCT,,0.72,WeatherDisplay:10.37,2013-06-08 21:49:00,
2013-06-08 17:54:00,72.8,62.1,29.92,WSW,253,8.1,8.1,69,0.00,SCT,,0.72,WeatherDisplay:10.37,2013-06-08 21:54:00,
2013-06-08 17:59:00,73.0,61.0,29.92,SW,230,10.4,10.4,66,0.00,SCT,,0.72,WeatherDisplay:10.37,2013-06-08 21:59:00,
2013-06-08 18:04:00,73.2,61.6,29.92,WNW,285,6.9,6.9,67,0.00,SCT,,0.72,WeatherDisplay:10.37,2013-06-08 22:04:00,
2013-06-08 18:09:00,73.1,61.5,29.92,WNW,284,9.2,9.2,67,0.00,SCT,,0.72,WeatherDisplay:10.37,2013-06-08 22:09:00,
2013-06-08 18:14:00,73.1,61.5,29.93,WSW,253,9.2,9.2,67,0.00,SCT,,0.72,WeatherDisplay:10.37,2013-06-08 22:14:00,
2013-06-08 18:19:00,72.6,61.5,29.93,WNW,295,9.2,9.2,68,0.00,SCT,,0.72,WeatherDisplay:10.37,2013-06-08 22:19:00,
2013-06-08 18:24:00,72.5,61.4,29.93,WNW,287,6.9,6.9,68,0.00,SCT,,0.72,WeatherDisplay:10.37,2013-06-08 22:24:00,
2013-06-08 18:29:00,72.3,60.8,29.93,West,271,13.8,13.8,67,0.00,SCT,,0.72,WeatherDisplay:10.37,2013-06-08 22:29:00,
2013-06-08 18:34:00,72.3,61.2,29.93,NW,318,8.1,8.1,68,0.00,OVC,,0.72,WeatherDisplay:10.37,2013-06-08 22:34:00,
2013-06-08 18:39:00,72.0,60.9,29.93,North,0,8.1,8.1,68,0.00,OVC,,0.72,WeatherDisplay:10.37,2013-06-08 22:39:00,
2013-06-08 18:44:00,72.0,61.3,29.93,NW,305,5.8,5.8,69,0.00,OVC,,0.72,WeatherDisplay:10.37,2013-06-08 22:44:00,
2013-06-08 18:49:00,72.0,61.7,29.94,West,260,4.6,4.6,70,0.00,OVC,,0.72,WeatherDisplay:10.37,2013-06-08 22:49:00,
2013-06-08 18:54:00,72.0,61.7,29.94,WSW,256,2.3,2.3,70,0.00,OVC,,0.72,WeatherDisplay:10.37,2013-06-08 22:54:00,
2013-06-08 18:59:00,71.5,61.6,29.94,WSW,254,9.2,9.2,71,0.00,OVC,,0.72,WeatherDisplay:10.37,2013-06-08 22:59:00,
2013-06-08 19:04:00,71.3,61.0,29.95,West,281,3.5,3.5,70,0.00,OVC,,0.72,WeatherDisplay:10.37,2013-06-08 23:04:00,
2013-06-08 19:09:00,71.0,61.2,29.95,WNW,288,6.9,6.9,71,0.00,OVC,,0.72,WeatherDisplay:10.37,2013-06-08 23:09:00,
2013-06-08 19:14:00,70.7,60.5,29.95,WSW,244,8.1,8.1,70,0.00,OVC,,0.72,WeatherDisplay:10.37,2013-06-08 23:14:00,
2013-06-08 19:19:00,70.5,61.1,29.95,West,280,2.3,2.3,72,0.00,BKN,,0.72,WeatherDisplay:10.37,2013-06-08 23:19:00,
2013-06-08 19:24:00,70.1,60.7,29.96,NW,305,2.3,2.3,72,0.00,BKN,,0.72,WeatherDisplay:10.37,2013-06-08 23:24:00,
2013-06-08 19:29:00,70.0,61.0,29.96,NNE,18,2.3,2.3,73,0.00,BKN,,0.72,WeatherDisplay:10.37,2013-06-08 23:29:00,
2013-06-08 19:34:00,69.9,61.3,29.96,West,277,4.6,4.6,74,0.00,BKN,,0.72,WeatherDisplay:10.37,2013-06-08 23:34:00,
2013-06-08 19:39:00,69.2,60.2,29.96,West,275,0.0,0.0,73,0.00,BKN,,0.72,WeatherDisplay:10.37,2013-06-08 23:39:00,
2013-06-08 19:44:00,69.0,60.4,29.96,SW,223,1.2,0.0,74,0.00,BKN,,0.72,WeatherDisplay:10.37,2013-06-08 23:44:00,
2013-06-08 19:49:00,69.0,60.8,29.97,WSW,250,1.2,1.2,75,0.00,BKN,,0.72,WeatherDisplay:10.37,2013-06-08 23:49:00,
2013-06-08 19:54:00,68.9,61.8,29.97,WNW,285,3.3,3.3,78,0.00,BKN,,0.72,WeatherDisplay:10.37,2013-06-08 23:54:00,
2013-06-08 19:59:00,68.7,62.0,29.97,WSW,250,0.0,0.0,79,0.00,BKN,,0.72,WeatherDisplay:10.37,2013-06-08 23:59:00,
2013-06-08 20:04:00,68.3,61.9,29.97,WSW,248,1.2,1.2,80,0.00,BKN,,0.72,WeatherDisplay:10.37,2013-06-09 00:04:00,
2013-06-08 20:09:00,67.8,61.4,29.97,WNW,289,0.0,0.0,80,0.00,BKN,,0.72,WeatherDisplay:10.37,2013-06-09 00:09:00,
2013-06-08 20:14:00,67.6,61.6,29.97,WSW,251,0.0,0.0,81,0.00,BKN,,0.72,WeatherDisplay:10.37,2013-06-09 00:14:00,
2013-06-08 20:19:00,67.0,61.0,29.97,WSW,251,0.0,0.0,81,0.00,CLR,,0.72,WeatherDisplay:10.37,2013-06-09 00:19:00,
2013-06-08 20:24:00,66.5,60.5,29.97,WSW,251,0.0,0.0,81,0.00,CLR,,0.72,WeatherDisplay:10.37,2013-06-09 00:24:00,
2013-06-08 20:29:00,66.2,60.6,29.97,WSW,251,0.0,0.0,82,0.00,CLR,,0.72,WeatherDisplay:10.37,2013-06-09 00:29:00,
2013-06-08 20:34:00,65.9,60.3,29.97,North,4,1.5,1.5,82,0.00,CLR,,0.72,WeatherDisplay:10.37,2013-06-09 00:34:00,
2013-06-08 20:39:00,65.8,60.5,29.98,West,272,1.2,1.2,83,0.00,CLR,,0.72,WeatherDisplay:10.37,2013-06-09 00:39:00,
2013-06-08 20:44:00,65.6,60.7,29.98,West,272,0.0,0.0,84,0.00,CLR,,0.72,WeatherDisplay:10.37,2013-06-09 00:44:00,
2013-06-08 20:49:00,65.3,60.4,29.99,North,353,2.3,2.3,84,0.00,CLR,,0.72,WeatherDisplay:10.37,2013-06-09 00:49:00,
2013-06-08 20:54:00,65.1,60.5,29.99,WNW,301,1.2,1.2,85,0.00,CLR,,0.72,WeatherDisplay:10.37,2013-06-09 00:54:00,
2013-06-08 20:59:00,64.7,59.8,29.99,WNW,287,0.0,0.0,84,0.00,CLR,,0.72,WeatherDisplay:10.37,2013-06-09 00:59:00,
2013-06-08 21:04:00,64.6,59.7,29.99,NNE,16,0.0,0.0,84,0.00,CLR,,0.72,WeatherDisplay:10.37,2013-06-09 01:04:00,
2013-06-08 21:09:00,64.5,59.6,29.99,NNE,16,0.0,0.0,84,0.00,CLR,,0.72,WeatherDisplay:10.37,2013-06-09 01:09:00,
2013-06-08 21:14:00,64.5,59.9,29.99,NNW,340,2.1,2.1,85,0.00,CLR,,0.72,WeatherDisplay:10.37,2013-06-09 01:14:00,
2013-06-08 21:19:00,64.5,59.9,30.00,NW,319,0.0,0.1,85,0.00,CLR,,0.72,WeatherDisplay:10.37,2013-06-09 01:19:00,
2013-06-08 21:24:00,64.3,59.7,30.00,NNW,347,1.2,1.2,85,0.00,CLR,,0.72,WeatherDisplay:10.37,2013-06-09 01:24:00,
2013-06-08 21:29:00,64.0,59.8,30.01,WNW,296,2.3,2.3,86,0.00,CLR,,0.72,WeatherDisplay:10.37,2013-06-09 01:29:00,
2013-06-08 21:34:00,63.8,59.6,30.01,WNW,295,1.2,1.2,86,0.00,CLR,,0.72,WeatherDisplay:10.37,2013-06-09 01:34:00,
2013-06-08 21:39:00,63.8,59.6,30.01,WNW,285,0.0,0.0,86,0.00,CLR,,0.72,WeatherDisplay:10.37,2013-06-09 01:39:00,
2013-06-08 21:44:00,63.6,59.4,30.02,WNW,285,0.0,0.0,86,0.00,CLR,,0.72,WeatherDisplay:10.37,2013-06-09 01:44:00,
2013-06-08 21:49:00,63.4,59.5,30.01,WNW,285,0.0,0.0,87,0.00,CLR,,0.72,WeatherDisplay:10.37,2013-06-09 01:49:00,
2013-06-08 21:54:00,63.0,59.4,30.02,WNW,287,1.6,1.6,88,0.00,CLR,,0.72,WeatherDisplay:10.37,2013-06-09 01:54:00,
2013-06-08 21:59:00,62.7,59.1,30.02,WNW,287,2.3,2.3,88,0.00,CLR,,0.72,WeatherDisplay:10.37,2013-06-09 01:59:00,
2013-06-08 22:04:00,62.5,58.9,30.03,WNW,301,1.2,1.3,88,0.00,CLR,,0.72,WeatherDisplay:10.37,2013-06-09 02:04:00,
2013-06-08 22:09:00,62.6,59.4,30.03,West,272,2.3,2.3,89,0.00,CLR,,0.72,WeatherDisplay:10.37,2013-06-09 02:09:00,
2013-06-08 22:14:00,62.4,59.2,30.03,NW,305,1.2,1.2,89,0.00,CLR,,0.72,WeatherDisplay:10.37,2013-06-09 02:14:00,
2013-06-08 22:19:00,62.0,59.1,30.03,West,264,1.4,1.4,90,0.00,CLR,,0.72,WeatherDisplay:10.37,2013-06-09 02:19:00,
2013-06-08 22:24:00,62.1,59.2,30.03,WSW,248,1.2,1.2,90,0.00,CLR,,0.72,WeatherDisplay:10.37,2013-06-09 02:24:00,
2013-06-08 22:29:00,62.0,59.1,30.03,West,272,0.0,0.0,90,0.00,CLR,,0.72,WeatherDisplay:10.37,2013-06-09 02:29:00,
2013-06-08 22:34:00,61.9,59.0,30.03,West,280,1.2,1.2,90,0.00,CLR,,0.72,WeatherDisplay:10.37,2013-06-09 02:34:00,
2013-06-08 22:39:00,61.8,59.2,30.03,WSW,254,1.2,1.2,91,0.00,CLR,,0.72,WeatherDisplay:10.37,2013-06-09 02:39:00,
2013-06-08 22:44:00,61.6,59.0,30.04,West,270,2.3,2.3,91,0.00,CLR,,0.72,WeatherDisplay:10.37,2013-06-09 02:44:00,
2013-06-08 22:49:00,61.4,58.8,30.04,West,265,2.3,2.3,91,0.00,CLR,,0.72,WeatherDisplay:10.37,2013-06-09 02:49:00,
2013-06-08 22:54:00,61.2,58.9,30.05,West,272,2.3,2.3,92,0.00,CLR,,0.72,WeatherDisplay:10.37,2013-06-09 02:54:00,
2013-06-08 22:59:00,61.2,58.9,30.05,WNW,282,2.3,2.3,92,0.00,CLR,,0.72,WeatherDisplay:10.37,2013-06-09 02:59:00,
2013-06-08 23:04:00,61.1,58.8,30.05,WNW,284,2.3,2.3,92,0.00,CLR,,0.72,WeatherDisplay:10.37,2013-06-09 03:04:00,
2013-06-08 23:09:00,61.1,58.8,30.05,WNW,285,0.0,0.0,92,0.00,CLR,,0.72,WeatherDisplay:10.37,2013-06-09 03:09:00,
2013-06-08 23:14:00,60.9,58.6,30.05,WNW,285,0.0,0.0,92,0.00,CLR,,0.72,WeatherDisplay:10.37,2013-06-09 03:14:00,
2013-06-08 23:19:00,60.9,58.6,30.05,WNW,285,0.0,0.0,92,0.00,CLR,,0.72,WeatherDisplay:10.37,2013-06-09 03:19:00,
2013-06-08 23:24:00,60.7,58.4,30.05,WNW,285,0.0,0.0,92,0.00,CLR,,0.72,WeatherDisplay:10.37,2013-06-09 03:24:00,
2013-06-08 23:29:00,60.8,58.8,30.06,WNW,285,0.0,0.0,93,0.00,CLR,,0.72,WeatherDisplay:10.37,2013-06-09 03:29:00,
2013-06-08 23:34:00,60.4,58.4,30.06,WNW,285,0.0,0.0,93,0.00,CLR,,0.72,WeatherDisplay:10.37,2013-06-09 03:34:00,
2013-06-08 23:40:00,60.6,58.6,30.06,WNW,285,0.0,0.0,93,0.00,CLR,,0.72,WeatherDisplay:10.37,2013-06-09 03:40:00,
2013-06-08 23:45:00,60.3,58.3,30.06,WNW,285,0.0,0.0,93,0.00,CLR,,0.72,WeatherDisplay:10.37,2013-06-09 03:45:00,
2013-06-08 23:50:00,60.3,58.3,30.06,WNW,285,0.0,0.0,93,0.00,CLR,,0.72,WeatherDisplay:10.37,2013-06-09 03:50:00,
2013-06-08 23:55:00,60.1,58.1,30.06,WNW,285,0.0,0.0,93,0.00,CLR,,0.72,WeatherDisplay:10.37,2013-06-09 03:55:00,